Perryopolis, PA (15473)

6:57 PM EST on December 27, 2014 (GMT -0500)
Belle Vernon | Change Station
CLOSE
Current Station
Personal Weather Station
Location: Belle Vernon, PA
Elevation: 996 ft
Nearby Weather Stations

Elev 996 ft 40.12 °N, 79.85 °W | Updated 13 seconds ago

Partly Cloudy
Partly Cloudy
48.0 °F
Feels Like 48 °F
N
0.0
Wind Variable Wind from NNW
Gusts 0.0 mph

Today
High -- | Low -- °F
--% Chance of Precip.
Yesterday
High -- | Low -- °F
Precip. -- in
7:40 AM 5:00 PM
Waxing Crescent, 41% visible
Pressure 30.10 in
Visibility 10.0 miles
Clouds Clear
Windchill 48 °F
Dew Point 33 °F
Humidity 56%
Rainfall 0.00 in
Snow Depth Not available.
UV 0 out of 12
Pollen .10 out of 12
Air Quality Not available.
Flu Activity Not available.
METAR KAGC 272353Z 18005KT 10SM CLR 11/M07 A3006 RMK AO2 SLP191 T01061067 10139 20106 58002

More Conditions Fewer Conditions

Pressure 30.10 in
Visibility 10.0 miles
Clouds Clear
Windchill 48 °F
Dew Point 33 °F
Humidity 56%
Rainfall 0.00 in
Snow Depth Not available.
UV 0 out of 12
Pollen .10 out of 12
Air Quality Not available.
Flu Activity Not available.
METAR KAGC 272353Z 18005KT 10SM CLR 11/M07 A3006 RMK AO2 SLP191 T01061067 10139 20106 58002

More Conditions Fewer Conditions

10-Day Weather Forecast

Almanac

Astronomy

Dec. 27, 2014 Rise Set
Actual Time
Civil Twilight
Nautical Twilight
Astronomical Twilight
Moon
Length of Visible Light
Length of Day
Tomorrow will be .
, % of the Moon is Illuminated

Today's Extremes

State Highs State Lows

Community

WunderPhotos

Upload Photos

1,781,110 photos uploaded!

WunderBlogs® & News

Nearby

Air Quality

  Air Quality AQ Index Pollutant
Not available.

Snow Depth

Station Depth Elevation

Earthquake Activity

City Distance Mag. Time & Date
Minimum magnitude displayed is 2.5.

Coastal Water Temperatures

Place Temperature

Nearby Weather Stations